Time;durP1;ratioP1;P1;durP2;ratioP2;P2;SDS_P1;SDS_P2;PMS_P1;PMS_P2;Temp;Humidity;BMP_temperature;BMP_pressure;BME280_temperature;BME280_humidity;BME280_pressure;Samples;Min_cycle;Max_cycle;Signal;HPM_P1;HPM_P2
2021/08/13 00:00:06;;;;;;;91.63;66.33;;;20.60;99.90;;;;;;6165499;23;20435;-72
2021/08/13 00:02:39;;;;;;;88.20;67.33;;;20.60;99.90;;;;;;6155586;23;20759;-72
2021/08/13 00:05:10;;;;;;;39.13;26.75;;;20.60;99.90;;;;;;6165634;23;20488;-72
2021/08/13 00:07:38;;;;;;;119.70;65.70;;;20.60;99.90;;;;;;6165363;23;20158;-72
2021/08/13 00:10:08;;;;;;;52.63;35.78;;;20.60;99.90;;;;;;6165189;23;20413;-72
2021/08/13 00:12:37;;;;;;;87.70;63.47;;;20.60;99.90;;;;;;6155653;23;20522;-72
2021/08/13 00:15:06;;;;;;;99.87;59.20;;;20.60;99.90;;;;;;6164989;23;20488;-72
2021/08/13 00:17:35;;;;;;;86.73;60.30;;;20.50;99.90;;;;;;6155548;23;20879;-72
2021/08/13 00:20:04;;;;;;;141.37;72.70;;;20.50;99.90;;;;;;6130047;23;20408;-72
2021/08/13 00:22:33;;;;;;;105.87;56.97;;;20.50;99.90;;;;;;6165321;23;20417;-72
2021/08/13 00:25:02;;;;;;;105.57;66.00;;;20.50;99.90;;;;;;6165377;23;20480;-72
2021/08/13 00:27:30;;;;;;;95.23;62.80;;;20.40;99.90;;;;;;6155783;23;20739;-72
2021/08/13 00:29:58;;;;;;;79.70;55.45;;;20.40;99.90;;;;;;6165622;23;20310;-72
2021/08/13 00:32:27;;;;;;;90.20;59.37;;;20.40;99.90;;;;;;6129262;23;20198;-72
2021/08/13 00:34:55;;;;;;;98.87;71.63;;;20.40;99.90;;;;;;6165060;23;20880;-72
2021/08/13 00:37:24;;;;;;;14.15;12.75;;;20.30;99.90;;;;;;6128060;23;20784;-72
2021/08/13 00:39:54;;;;;;;83.73;56.93;;;20.40;99.90;;;;;;6129338;23;20613;-72
2021/08/13 00:42:23;;;;;;;92.27;64.17;;;20.40;99.90;;;;;;6129343;23;20500;-72
2021/08/13 00:44:51;;;;;;;96.13;62.73;;;20.30;99.90;;;;;;6165496;23;20452;-73
2021/08/13 00:47:22;;;;;;;83.53;67.60;;;20.30;99.90;;;;;;6135131;23;20764;-73
2021/08/13 00:50:02;;;;;;;110.50;71.27;;;20.20;99.90;;;;;;6155188;23;20793;-72
2021/08/13 00:52:41;;;;;;;108.17;63.73;;;20.20;99.90;;;;;;6154136;23;20440;-72
2021/08/13 00:55:12;;;;;;;87.53;61.10;;;20.10;99.90;;;;;;6153717;23;20421;-72
2021/08/13 00:57:55;;;;;;;13.48;12.27;;;20.10;99.90;;;;;;6152615;23;20412;-72
2021/08/13 01:00:43;;;;;;;76.30;57.17;;;20.20;99.90;;;;;;6165953;23;20161;-72
2021/08/13 01:03:13;;;;;;;86.27;61.73;;;20.10;99.90;;;;;;6153922;23;20444;-72
2021/08/13 01:05:47;;;;;;;76.63;56.87;;;20.00;99.90;;;;;;6154059;23;20412;-72
2021/08/13 01:08:15;;;;;;;74.87;62.53;;;20.00;99.90;;;;;;6153951;23;20420;-72
2021/08/13 01:10:53;;;;;;;80.90;56.83;;;19.90;99.90;;;;;;6153995;23;20416;-72
2021/08/13 01:13:30;;;;;;;81.00;66.30;;;19.90;99.90;;;;;;6165392;23;20425;-72
2021/08/13 01:16:02;;;;;;;85.20;62.83;;;19.80;99.90;;;;;;6153839;23;20409;-72
2021/08/13 01:18:36;;;;;;;108.90;62.27;;;19.80;99.90;;;;;;6153904;23;20967;-72
2021/08/13 01:21:36;;;;;;;93.97;57.50;;;19.70;99.90;;;;;;6165741;23;20456;-72
2021/08/13 01:24:08;;;;;;;14.10;12.70;;;19.70;99.90;;;;;;6137261;23;20424;-72
2021/08/13 01:26:44;;;;;;;60.53;45.60;;;19.80;99.90;;;;;;6156353;23;20071;-72
2021/08/13 01:29:24;;;;;;;77.27;49.27;;;19.80;99.90;;;;;;6155577;23;20211;-72
2021/08/13 01:32:20;;;;;;;86.20;60.13;;;19.70;99.90;;;;;;6156218;23;20506;-73
2021/08/13 01:34:57;;;;;;;81.43;58.47;;;19.60;99.90;;;;;;6155567;23;20424;-72
2021/08/13 01:37:27;;;;;;;87.30;57.63;;;19.60;99.90;;;;;;6155616;23;20463;-72
2021/08/13 01:40:03;;;;;;;111.50;68.23;;;19.50;99.90;;;;;;6155723;23;20871;-72
2021/08/13 01:42:34;;;;;;;77.53;62.87;;;19.40;99.90;;;;;;6155369;23;20437;-71
2021/08/13 01:45:07;;;;;;;105.60;61.23;;;19.40;99.90;;;;;;6155509;23;20417;-71
2021/08/13 01:47:42;;;;;;;87.53;62.27;;;19.40;99.90;;;;;;6155541;23;20515;-71
2021/08/13 01:50:11;;;;;;;90.70;60.23;;;19.30;99.90;;;;;;6155419;23;20436;-71
2021/08/13 01:52:42;;;;;;;79.77;63.33;;;19.30;99.90;;;;;;6155562;23;20487;-71
2021/08/13 01:55:13;;;;;;;75.27;65.60;;;19.20;99.90;;;;;;6155389;23;20425;-71
2021/08/13 01:57:44;;;;;;;16.20;14.70;;;19.20;99.90;;;;;;6155053;23;20417;-71
2021/08/13 02:00:16;;;;;;;123.37;55.77;;;19.30;99.90;;;;;;6155450;23;20165;-71
2021/08/13 02:02:46;;;;;;;136.07;60.07;;;19.30;99.90;;;;;;6166351;23;20756;-71
2021/08/13 02:05:22;;;;;;;159.57;60.00;;;19.20;99.90;;;;;;6155655;23;20417;-71
2021/08/13 02:07:52;;;;;;;203.37;65.50;;;19.20;99.90;;;;;;6155944;23;20413;-71
2021/08/13 02:10:22;;;;;;;139.47;66.33;;;19.10;99.90;;;;;;6155084;23;20447;-71
2021/08/13 02:12:50;;;;;;;166.20;63.20;;;19.10;99.90;;;;;;6155260;23;20779;-71
2021/08/13 02:15:19;;;;;;;168.57;65.40;;;19.10;99.90;;;;;;6156163;23;20417;-71
2021/08/13 02:17:57;;;;;;;17.02;15.43;;;19.10;99.90;;;;;;6154509;23;20475;-71
2021/08/13 02:20:30;;;;;;;146.80;55.47;;;19.10;99.90;;;;;;6156259;23;20192;-71
2021/08/13 02:22:58;;;;;;;16.75;15.25;;;19.10;99.90;;;;;;6154272;23;20464;-71
2021/08/13 02:25:29;;;;;;;118.23;55.50;;;19.10;99.90;;;;;;6154766;23;20641;-71
2021/08/13 02:27:59;;;;;;;174.40;62.17;;;19.10;99.90;;;;;;6155124;23;20963;-71
2021/08/13 02:30:30;;;;;;;156.53;60.23;;;19.00;99.90;;;;;;6155272;23;20433;-71
2021/08/13 02:33:01;;;;;;;159.70;65.93;;;18.90;99.90;;;;;;6158594;23;20467;-71
2021/08/13 02:35:32;;;;;;;161.23;64.40;;;18.90;99.90;;;;;;6155359;23;20425;-71
2021/08/13 02:38:09;;;;;;;148.80;65.00;;;18.90;99.90;;;;;;6154899;23;20408;-71
2021/08/13 02:40:49;;;;;;;196.50;68.53;;;18.90;99.90;;;;;;6155063;23;20432;-71
2021/08/13 02:43:23;;;;;;;143.33;71.93;;;18.80;99.90;;;;;;6155361;23;20978;-71
2021/08/13 02:45:55;;;;;;;205.37;71.17;;;18.80;99.90;;;;;;6154941;23;20471;-71
2021/08/13 02:48:25;;;;;;;151.63;67.20;;;18.80;99.90;;;;;;6154876;23;20425;-71
2021/08/13 02:50:56;;;;;;;175.90;68.43;;;18.70;99.90;;;;;;6154972;23;20441;-71
2021/08/13 02:53:26;;;;;;;18.98;17.30;;;18.70;99.90;;;;;;6153496;23;20801;-71
2021/08/13 02:56:05;;;;;;;102.27;56.90;;;18.80;99.90;;;;;;6155125;23;20170;-71
2021/08/13 02:58:40;;;;;;;174.00;68.40;;;18.80;99.90;;;;;;6155153;23;20499;-71
2021/08/13 03:01:12;;;;;;;156.43;63.57;;;18.70;99.90;;;;;;6166152;23;20381;-71
2021/08/13 03:03:44;;;;;;;206.70;67.23;;;18.70;99.90;;;;;;6154703;23;20444;-71
2021/08/13 03:06:17;;;;;;;198.73;67.27;;;18.60;99.90;;;;;;6154662;23;20966;-71
2021/08/13 03:08:48;;;;;;;160.00;68.43;;;18.60;99.90;;;;;;6154760;23;20420;-70
2021/08/13 03:11:18;;;;;;;212.53;69.30;;;18.60;99.90;;;;;;6154565;23;20468;-71
2021/08/13 03:13:47;;;;;;;20.98;19.17;;;18.50;99.90;;;;;;6154580;23;20865;-72
2021/08/13 03:16:17;;;;;;;119.40;58.97;;;18.60;99.90;;;;;;6154633;23;20179;-73
2021/08/13 03:18:52;;;;;;;22.60;20.80;;;18.50;99.90;;;;;;6153875;23;20922;-73
2021/08/13 03:21:20;;;;;;;115.80;59.77;;;18.50;99.90;;;;;;6154229;23;20174;-73
2021/08/13 03:23:49;;;;;;;137.03;66.47;;;18.50;99.90;;;;;;6154424;23;20471;-73
2021/08/13 03:26:18;;;;;;;190.67;69.00;;;18.50;99.90;;;;;;6154598;23;20405;-73
2021/08/13 03:28:48;;;;;;;209.67;71.70;;;18.50;99.90;;;;;;6165891;23;20405;-72
2021/08/13 03:31:31;;;;;;;185.63;64.67;;;18.40;99.90;;;;;;6165808;23;20520;-73
2021/08/13 03:34:02;;;;;;;166.53;66.33;;;18.40;99.90;;;;;;6154518;23;20409;-72
2021/08/13 03:36:32;;;;;;;162.67;75.57;;;18.40;99.90;;;;;;6154559;23;20413;-73
2021/08/13 03:39:00;;;;;;;147.53;69.63;;;18.30;99.90;;;;;;6156559;23;20463;-73
2021/08/13 03:41:30;;;;;;;21.95;19.95;;;18.30;99.90;;;;;;6152834;23;20476;-72
2021/08/13 03:43:58;;;;;;;159.20;62.67;;;18.40;99.90;;;;;;6154403;23;20173;-72
2021/08/13 03:46:28;;;;;;;22.70;20.63;;;18.40;99.90;;;;;;6153727;23;20873;-72
2021/08/13 03:49:01;;;;;;;159.97;60.40;;;18.40;99.90;;;;;;6154232;23;20467;-72
2021/08/13 03:51:29;;;;;;;174.37;61.87;;;18.40;99.90;;;;;;6165568;23;20441;-72
2021/08/13 03:53:57;;;;;;;140.23;63.27;;;18.30;99.90;;;;;;6154387;23;20988;-73
2021/08/13 03:56:28;;;;;;;165.00;61.87;;;18.30;99.90;;;;;;6155175;23;20734;-72
2021/08/13 03:58:56;;;;;;;213.37;69.53;;;18.30;99.90;;;;;;6154747;23;20927;-72
2021/08/13 04:01:24;;;;;;;217.17;71.10;;;18.20;99.90;;;;;;6154231;23;20421;-72
2021/08/13 04:03:53;;;;;;;144.63;67.03;;;18.20;99.90;;;;;;6165390;23;20404;-72
2021/08/13 04:06:23;;;;;;;141.20;65.70;;;18.20;99.90;;;;;;6155299;23;20516;-72
2021/08/13 04:08:51;;;;;;;22.52;20.63;;;18.20;99.90;;;;;;6153051;23;20439;-72
2021/08/13 04:11:19;;;;;;;156.57;49.20;;;18.20;99.90;;;;;;6154099;23;20268;-72
2021/08/13 04:13:50;;;;;;;26.45;24.05;;;18.20;99.90;;;;;;6153752;23;20409;-72
2021/08/13 04:16:22;;;;;;;180.17;58.07;;;18.20;99.90;;;;;;6154179;23;20197;-73
2021/08/13 04:18:53;;;;;;;227.83;71.57;;;18.20;99.90;;;;;;6155379;23;20461;-71
2021/08/13 04:21:24;;;;;;;179.40;68.03;;;18.20;99.90;;;;;;6155304;23;20416;-71
2021/08/13 04:23:52;;;;;;;172.87;67.27;;;18.10;99.90;;;;;;6154588;23;20416;-70
2021/08/13 04:26:21;;;;;;;187.90;58.43;;;18.10;99.90;;;;;;6154708;23;20904;-70
2021/08/13 04:28:49;;;;;;;149.87;59.67;;;18.10;99.90;;;;;;6155573;23;20500;-70
2021/08/13 04:31:18;;;;;;;195.33;56.63;;;18.00;99.90;;;;;;6154113;23;20444;-70
2021/08/13 04:33:46;;;;;;;190.47;64.00;;;18.00;99.90;;;;;;6154184;23;20808;-70
2021/08/13 04:36:19;;;;;;;26.10;23.80;;;18.00;99.90;;;;;;6153404;23;20888;-70
2021/08/13 04:38:49;;;;;;;138.43;53.37;;;18.10;99.90;;;;;;6154185;23;20621;-71
2021/08/13 04:41:18;;;;;;;179.30;60.10;;;18.10;99.90;;;;;;6155335;23;20460;-70
2021/08/13 04:43:47;;;;;;;155.20;63.07;;;18.10;99.90;;;;;;6154401;23;20412;-70
2021/08/13 04:46:16;;;;;;;168.23;64.30;;;18.00;99.90;;;;;;6154447;23;20413;-70
2021/08/13 04:48:45;;;;;;;230.37;64.13;;;18.00;99.90;;;;;;6153968;23;20955;-70
2021/08/13 04:51:17;;;;;;;190.50;61.60;;;18.00;99.90;;;;;;6154219;23;20460;-72
2021/08/13 04:53:46;;;;;;;211.70;67.93;;;18.00;99.90;;;;;;6154174;23;20419;-73
2021/08/13 04:56:16;;;;;;;141.57;54.47;;;18.00;99.90;;;;;;6166024;23;20408;-72
2021/08/13 04:58:45;;;;;;;193.03;62.93;;;18.00;99.90;;;;;;6154496;23;20492;-72
2021/08/13 05:01:26;;;;;;;122.63;59.53;;;18.00;99.90;;;;;;6157353;23;20415;-72
2021/08/13 05:03:56;;;;;;;30.15;27.75;;;18.00;99.90;;;;;;6155570;23;20507;-72
2021/08/13 05:06:25;;;;;;;179.63;61.50;;;18.10;99.90;;;;;;6157080;23;20227;-72
2021/08/13 05:08:54;;;;;;;186.80;59.27;;;18.10;99.90;;;;;;6156457;23;20975;-72
2021/08/13 05:11:23;;;;;;;220.80;66.33;;;18.10;99.90;;;;;;6155873;23;20462;-72
2021/08/13 05:13:52;;;;;;;182.30;70.03;;;18.10;99.90;;;;;;6155867;23;20439;-72
2021/08/13 05:16:21;;;;;;;190.17;74.23;;;18.10;99.90;;;;;;6155994;23;20735;-72
2021/08/13 05:18:49;;;;;;;192.73;74.93;;;18.10;99.90;;;;;;6167341;23;20428;-72
2021/08/13 05:21:18;;;;;;;190.23;79.33;;;18.10;99.90;;;;;;6156113;23;20444;-72
2021/08/13 05:23:46;;;;;;;167.73;79.77;;;18.10;99.90;;;;;;6155889;23;20436;-72
2021/08/13 05:26:14;;;;;;;220.07;88.57;;;18.20;99.90;;;;;;6156307;23;20914;-72
2021/08/13 05:28:44;;;;;;;203.90;86.33;;;18.20;99.90;;;;;;6155654;23;20503;-72
2021/08/13 05:31:16;;;;;;;131.82;70.70;;;18.20;99.90;;;;;;6155548;23;20456;-72
2021/08/13 05:33:45;;;;;;;227.43;79.23;;;18.20;99.90;;;;;;6155581;23;20193;-72
2021/08/13 05:36:16;;;;;;;170.87;62.13;;;18.30;99.90;;;;;;6155632;23;20425;-72
2021/08/13 05:38:45;;;;;;;176.27;65.60;;;18.30;99.90;;;;;;6155655;23;20408;-72
2021/08/13 05:41:13;;;;;;;194.70;59.93;;;18.40;99.90;;;;;;6155568;23;20456;-72
2021/08/13 05:43:46;;;;;;;180.27;68.53;;;18.40;99.90;;;;;;6156075;23;20432;-72
2021/08/13 05:46:16;;;;;;;192.73;71.23;;;18.50;99.90;;;;;;6155586;23;20417;-72
2021/08/13 05:48:44;;;;;;;196.50;68.00;;;18.50;99.90;;;;;;6155633;23;20413;-72
2021/08/13 05:51:13;;;;;;;201.70;64.97;;;18.60;99.90;;;;;;6155385;23;20441;-72
2021/08/13 05:53:41;;;;;;;237.50;66.50;;;18.60;99.90;;;;;;6155437;23;20436;-72
2021/08/13 05:56:10;;;;;;;219.70;71.47;;;18.70;99.90;;;;;;6156064;23;20417;-72
2021/08/13 05:58:39;;;;;;;237.27;67.60;;;18.80;99.90;;;;;;6167042;23;20400;-72
2021/08/13 06:01:10;;;;;;;31.38;28.38;;;18.90;99.90;;;;;;6154481;23;20512;-70
2021/08/13 06:03:39;;;;;;;171.17;59.37;;;19.00;99.90;;;;;;6155359;23;20213;-70
2021/08/13 06:06:08;;;;;;;31.95;28.80;;;19.20;99.90;;;;;;6154241;23;20416;-69
2021/08/13 06:08:36;;;;;;;187.63;61.03;;;19.40;99.90;;;;;;6155595;23;20193;-69
2021/08/13 06:11:04;;;;;;;263.90;72.43;;;19.60;99.90;;;;;;6154842;23;20440;-71
2021/08/13 06:13:32;;;;;;;267.17;62.20;;;19.80;99.90;;;;;;6156114;23;20468;-70
2021/08/13 06:16:01;;;;;;;244.97;65.90;;;20.00;99.90;;;;;;6155550;23;20896;-69
2021/08/13 06:18:32;;;;;;;204.00;67.23;;;20.30;99.90;;;;;;6155348;23;20491;-70
2021/08/13 06:21:00;;;;;;;241.03;69.00;;;20.50;99.90;;;;;;6155870;23;20416;-69
2021/08/13 06:23:32;;;;;;;296.50;83.03;;;20.80;99.90;;;;;;6155455;23;20475;-69
2021/08/13 06:26:01;;;;;;;298.00;84.33;;;21.00;99.90;;;;;;6155804;23;20427;-69
2021/08/13 06:28:31;;;;;;;32.78;30.17;;;21.30;99.90;;;;;;6155088;23;20927;-69
2021/08/13 06:31:00;;;;;;;293.17;87.63;;;21.60;99.90;;;;;;6155601;23;20642;-71
2021/08/13 06:33:31;;;;;;;32.67;29.77;;;21.80;99.90;;;;;;6154611;23;20413;-71
2021/08/13 06:35:59;;;;;;;294.27;93.77;;;22.00;99.90;;;;;;6167370;23;20429;-71
2021/08/13 06:38:32;;;;;;;295.23;95.30;;;22.20;99.90;;;;;;6155740;23;20417;-71
2021/08/13 06:41:00;;;;;;;296.33;105.33;;;22.40;99.90;;;;;;6155400;23;20416;-71
2021/08/13 06:43:28;;;;;;;293.67;98.60;;;22.60;99.90;;;;;;6155138;23;20436;-71
2021/08/13 06:45:58;;;;;;;294.57;105.97;;;22.80;99.90;;;;;;6156141;23;20470;-71
2021/08/13 06:48:32;;;;;;;296.97;102.23;;;23.10;99.90;;;;;;6156853;23;20424;-71
2021/08/13 06:51:06;;;;;;;297.90;112.00;;;23.30;99.90;;;;;;6154918;23;20896;-71
2021/08/13 06:53:34;;;;;;;298.00;108.27;;;23.50;99.90;;;;;;6155318;23;20432;-71
2021/08/13 06:56:02;;;;;;;33.15;30.48;;;23.60;99.90;;;;;;6154298;23;20416;-71
2021/08/13 06:58:31;;;;;;;299.70;106.57;;;23.70;99.90;;;;;;6154890;23;20622;-71
2021/08/13 07:01:02;;;;;;;106.63;55.65;;;23.90;99.90;;;;;;6155658;23;20427;-72
2021/08/13 07:03:32;;;;;;;303.77;112.63;;;24.10;99.90;;;;;;6156219;23;20193;-71
2021/08/13 07:06:01;;;;;;;312.73;121.40;;;24.30;99.90;;;;;;6154898;23;20455;-71
2021/08/13 07:08:29;;;;;;;312.43;123.43;;;24.50;99.90;;;;;;6155139;23;20464;-71
2021/08/13 07:11:00;;;;;;;307.03;124.17;;;24.70;99.90;;;;;;6155582;23;20408;-71
2021/08/13 07:13:30;;;;;;;316.57;124.97;;;24.80;99.90;;;;;;6154752;23;20452;-70
2021/08/13 07:16:02;;;;;;;338.23;125.63;;;24.90;99.90;;;;;;6155051;23;20409;-71
2021/08/13 07:18:35;;;;;;;328.33;126.83;;;25.10;99.90;;;;;;6155166;23;20467;-71
2021/08/13 07:21:04;;;;;;;332.53;130.97;;;25.20;99.90;;;;;;6154791;23;20417;-72
2021/08/13 07:23:32;;;;;;;29.47;27.20;;;25.20;99.90;;;;;;6154583;23;20413;-71
2021/08/13 07:26:00;;;;;;;338.00;143.67;;;25.40;99.90;;;;;;6154602;23;20442;-71
2021/08/13 07:28:29;;;;;;;34.45;31.60;;;25.50;99.90;;;;;;6153959;23;20790;-71
2021/08/13 07:30:57;;;;;;;351.20;137.83;;;25.50;99.90;;;;;;6154520;23;20175;-71
2021/08/13 07:33:39;;;;;;;351.00;126.50;;;25.50;99.90;;;;;;6155004;23;20459;-72
2021/08/13 07:36:09;;;;;;;344.90;122.47;;;25.50;99.90;;;;;;6155049;23;20892;-72
2021/08/13 07:38:40;;;;;;;335.13;136.57;;;25.60;99.90;;;;;;6154605;23;20496;-72
2021/08/13 07:41:09;;;;;;;330.90;130.77;;;25.60;99.90;;;;;;6154610;23;20404;-72
2021/08/13 07:43:39;;;;;;;341.03;127.27;;;25.60;99.90;;;;;;6154893;23;20439;-72
2021/08/13 07:46:11;;;;;;;98.50;87.93;;;25.70;99.90;;;;;;6155144;23;20401;-71
2021/08/13 07:48:41;;;;;;;359.90;137.07;;;25.70;99.90;;;;;;6165963;23;20412;-72
2021/08/13 07:51:10;;;;;;;24.90;22.70;;;25.70;99.90;;;;;;6129066;23;20413;-71
2021/08/13 07:53:38;;;;;;;320.50;119.00;;;25.80;99.90;;;;;;6165607;23;20280;-71
2021/08/13 07:56:09;;;;;;;27.35;25.20;;;25.80;99.90;;;;;;6128906;23;20413;-72
2021/08/13 07:58:38;;;;;;;303.33;126.67;;;25.90;99.90;;;;;;6129825;23;20169;-72
2021/08/13 08:01:07;;;;;;;343.87;140.77;;;25.90;99.90;;;;;;6130085;23;20420;-72
2021/08/13 08:03:35;;;;;;;345.87;136.70;;;25.90;99.90;;;;;;6156681;23;20420;-72
2021/08/13 08:06:05;;;;;;;342.93;134.90;;;26.00;99.90;;;;;;6157347;23;20404;-72
2021/08/13 08:08:33;;;;;;;337.60;130.13;;;26.00;99.90;;;;;;6157352;23;20749;-73
2021/08/13 08:11:02;;;;;;;339.20;136.93;;;26.00;99.90;;;;;;6157392;23;20419;-72
2021/08/13 08:13:30;;;;;;;338.33;144.13;;;25.90;99.90;;;;;;6157228;23;20528;-72
2021/08/13 08:15:58;;;;;;;20.35;18.50;;;25.90;99.90;;;;;;6166582;23;20440;-72
2021/08/13 08:18:26;;;;;;;299.67;119.27;;;25.90;99.90;;;;;;6157641;23;20172;-72
2021/08/13 08:20:54;;;;;;;128.98;57.95;;;25.90;99.90;;;;;;6156910;23;20416;-71
2021/08/13 08:23:24;;;;;;;309.00;114.47;;;25.90;99.90;;;;;;6166863;23;20435;-72
2021/08/13 08:25:52;;;;;;;312.83;135.63;;;26.00;99.90;;;;;;6166827;23;20448;-72
2021/08/13 08:28:20;;;;;;;294.30;122.77;;;26.00;99.90;;;;;;6157480;23;20419;-72
2021/08/13 08:30:48;;;;;;;308.50;117.63;;;26.00;99.90;;;;;;6167396;23;20412;-72
2021/08/13 08:33:16;;;;;;;324.93;121.90;;;26.00;99.90;;;;;;6157078;23;20468;-72
2021/08/13 08:35:44;;;;;;;340.73;131.47;;;26.00;99.90;;;;;;6168496;23;20408;-72
2021/08/13 08:38:12;;;;;;;321.50;118.30;;;26.00;99.90;;;;;;6159366;23;20400;-72
2021/08/13 08:40:42;;;;;;;126.35;55.10;;;26.00;99.90;;;;;;6158863;23;20428;-72
2021/08/13 08:43:11;;;;;;;323.93;121.63;;;26.00;99.90;;;;;;6159051;23;20193;-72
2021/08/13 08:45:40;;;;;;;300.77;119.57;;;26.00;99.90;;;;;;6159301;23;20404;-72
2021/08/13 08:48:10;;;;;;;318.77;121.87;;;26.00;99.90;;;;;;6168737;23;20418;-72
2021/08/13 08:50:41;;;;;;;309.30;109.50;;;26.00;99.90;;;;;;6159236;23;20455;-72
2021/08/13 08:53:15;;;;;;;310.20;115.27;;;26.00;99.90;;;;;;6159001;23;20441;-72
2021/08/13 08:55:45;;;;;;;339.20;124.10;;;26.00;99.90;;;;;;6159082;23;20380;-73
2021/08/13 08:58:14;;;;;;;339.30;136.50;;;26.10;99.90;;;;;;6159028;23;20387;-72
2021/08/13 09:00:45;;;;;;;325.20;123.97;;;26.10;99.90;;;;;;6158815;23;20397;-72
2021/08/13 09:03:15;;;;;;;327.43;125.00;;;26.20;99.90;;;;;;6159090;23;20515;-72
2021/08/13 09:05:44;;;;;;;66.22;35.47;;;26.20;99.90;;;;;;6168418;23;20710;-72
2021/08/13 09:08:13;;;;;;;325.20;125.97;;;26.30;99.90;;;;;;6159098;23;20177;-72
2021/08/13 09:10:42;;;;;;;276.67;110.40;;;26.30;99.90;;;;;;6168565;23;20468;-72
2021/08/13 09:13:12;;;;;;;335.70;119.00;;;26.30;99.90;;;;;;6158503;23;20756;-72
2021/08/13 09:15:41;;;;;;;317.10;121.80;;;26.30;99.90;;;;;;6159177;23;20401;-72
2021/08/13 09:18:15;;;;;;;331.17;126.23;;;26.30;99.90;;;;;;6158747;23;20490;-72
2021/08/13 09:20:46;;;;;;;344.27;125.63;;;26.30;99.90;;;;;;6158896;23;20413;-72
2021/08/13 09:23:36;;;;;;;341.23;128.97;;;26.30;99.90;;;;;;6158954;23;20468;-72
2021/08/13 09:26:07;;;;;;;362.17;135.30;;;26.30;99.90;;;;;;6158919;23;20801;-72
2021/08/13 09:28:57;;;;;;;335.30;122.63;;;26.30;99.90;;;;;;6158651;23;20455;-72
2021/08/13 09:31:51;;;;;;;353.13;127.57;;;26.30;99.90;;;;;;6157773;23;20483;-72
2021/08/13 09:34:52;;;;;;;338.70;126.37;;;26.20;99.90;;;;;;6151697;23;20416;-73
2021/08/13 09:37:20;;;;;;;325.63;128.17;;;26.20;99.90;;;;;;6131041;23;20511;-72
2021/08/13 09:39:54;;;;;;;339.07;130.50;;;26.10;99.90;;;;;;6168042;23;20437;-73
2021/08/13 09:42:32;;;;;;;341.87;128.50;;;26.10;99.90;;;;;;6167258;23;20826;-73
2021/08/13 09:45:03;;;;;;;310.80;122.30;;;26.00;99.90;;;;;;6167305;23;20419;-73
2021/08/13 09:47:39;;;;;;;323.27;125.70;;;26.10;99.90;;;;;;6161227;23;20828;-73
2021/08/13 09:50:10;;;;;;;312.00;127.10;;;26.10;99.90;;;;;;6131098;23;20460;-73
2021/08/13 09:52:39;;;;;;;327.53;116.77;;;26.10;99.90;;;;;;6130704;23;20531;-73
2021/08/13 09:55:13;;;;;;;18.60;17.00;;;26.20;99.90;;;;;;6165644;23;20488;-72
2021/08/13 09:57:45;;;;;;;318.43;119.43;;;26.30;99.90;;;;;;6130826;23;20169;-72
2021/08/13 10:00:17;;;;;;;21.77;19.85;;;26.50;99.90;;;;;;6130178;23;20463;-73
2021/08/13 10:02:47;;;;;;;294.20;120.50;;;26.50;99.90;;;;;;6130714;23;20577;-72
2021/08/13 10:05:21;;;;;;;324.63;130.40;;;26.50;99.90;;;;;;6166971;23;20385;-72
2021/08/13 10:07:51;;;;;;;320.97;130.37;;;26.50;99.90;;;;;;6130683;23;20434;-73
2021/08/13 10:10:27;;;;;;;335.17;136.70;;;26.50;99.90;;;;;;6131034;23;20427;-73
2021/08/13 10:12:58;;;;;;;360.17;130.83;;;26.50;99.90;;;;;;6130596;23;20494;-72
2021/08/13 10:15:33;;;;;;;329.03;126.83;;;26.50;99.90;;;;;;6130752;23;20416;-72
2021/08/13 10:18:06;;;;;;;19.03;17.33;;;26.50;99.90;;;;;;6131679;23;20417;-73
2021/08/13 10:20:38;;;;;;;312.03;128.43;;;26.60;99.90;;;;;;6130605;23;20442;-72
2021/08/13 10:23:07;;;;;;;350.23;135.77;;;26.70;99.80;;;;;;6130749;23;20467;-73
2021/08/13 10:25:36;;;;;;;347.67;135.20;;;26.70;99.70;;;;;;6130913;23;20409;-73
2021/08/13 10:28:05;;;;;;;322.17;125.93;;;26.70;99.70;;;;;;6130461;23;20420;-72
2021/08/13 10:30:44;;;;;;;427.17;145.43;;;26.70;99.60;;;;;;6130544;23;20425;-73
2021/08/13 10:33:17;;;;;;;371.70;135.83;;;26.80;99.20;;;;;;6130342;23;20444;-73
2021/08/13 10:35:51;;;;;;;358.37;137.90;;;26.70;99.10;;;;;;6130709;23;20460;-72
2021/08/13 10:38:21;;;;;;;328.73;129.07;;;26.70;99.00;;;;;;6130464;23;20755;-73
2021/08/13 10:40:51;;;;;;;169.45;72.22;;;26.70;99.00;;;;;;6130088;23;20463;-73
2021/08/13 10:43:23;;;;;;;337.53;133.13;;;26.70;99.00;;;;;;6130415;23;20188;-72
2021/08/13 10:45:55;;;;;;;337.20;136.53;;;26.70;99.00;;;;;;6130321;23;20405;-73
2021/08/13 10:48:28;;;;;;;17.58;15.88;;;26.70;98.90;;;;;;6147430;23;20911;-72
2021/08/13 10:51:00;;;;;;;301.23;127.40;;;26.80;98.70;;;;;;6155260;23;20175;-73
2021/08/13 10:53:29;;;;;;;314.67;131.03;;;26.80;98.70;;;;;;6154671;23;20493;-73
2021/08/13 10:56:02;;;;;;;339.77;151.83;;;26.90;98.90;;;;;;6155614;23;20451;-73
2021/08/13 10:58:48;;;;;;;112.63;76.67;;;26.90;98.90;;;;;;6154602;23;20412;-73
2021/08/13 11:01:22;;;;;;;387.93;153.20;;;27.00;99.00;;;;;;6154908;23;20413;-72
2021/08/13 11:04:13;;;;;;;289.13;112.63;;;27.10;99.00;;;;;;6154726;23;20421;-72
2021/08/13 11:06:47;;;;;;;390.83;145.50;;;27.10;98.90;;;;;;6154791;23;20667;-72
2021/08/13 11:09:34;;;;;;;365.77;154.07;;;27.20;98.90;;;;;;6154964;23;20923;-72
2021/08/13 11:12:12;;;;;;;16.08;14.57;;;27.20;98.80;;;;;;6153938;23;20439;-72
2021/08/13 11:14:49;;;;;;;272.73;120.93;;;27.30;98.20;;;;;;6154563;23;20215;-73
2021/08/13 11:17:40;;;;;;;267.43;129.07;;;27.30;98.20;;;;;;6154719;23;20470;-73
2021/08/13 11:20:11;;;;;;;366.27;141.40;;;27.30;98.30;;;;;;6154681;23;20440;-73
2021/08/13 11:22:44;;;;;;;335.90;128.47;;;27.30;98.30;;;;;;6154726;23;20438;-72
2021/08/13 11:25:14;;;;;;;294.37;136.63;;;27.30;98.30;;;;;;6154525;23;20408;-73
2021/08/13 11:28:15;;;;;;;19.17;17.45;;;27.20;98.30;;;;;;6154041;23;20417;-73
2021/08/13 11:30:45;;;;;;;353.13;140.83;;;27.30;98.30;;;;;;6154626;23;20188;-73
2021/08/13 11:33:39;;;;;;;218.25;91.10;;;27.30;98.30;;;;;;6154334;23;20413;-73
2021/08/13 11:36:46;;;;;;;365.90;144.50;;;27.20;98.10;;;;;;6154864;23;20196;-73
2021/08/13 11:39:35;;;;;;;155.73;77.57;;;27.20;98.10;;;;;;6149525;23;20492;-73
2021/08/13 11:42:06;;;;;;;312.57;136.63;;;27.20;98.10;;;;;;6166891;23;20443;-73
2021/08/13 11:44:36;;;;;;;356.50;142.03;;;27.10;98.10;;;;;;6155348;23;20419;-73
2021/08/13 11:47:06;;;;;;;374.47;138.30;;;27.10;98.10;;;;;;6154433;23;20424;-73
2021/08/13 11:49:37;;;;;;;342.57;138.83;;;27.00;98.10;;;;;;6154411;23;20896;-73
2021/08/13 11:52:06;;;;;;;393.13;141.97;;;27.00;98.30;;;;;;6154973;23;20436;-73
2021/08/13 11:54:37;;;;;;;366.97;138.30;;;27.00;98.00;;;;;;6154386;23;20808;-73
2021/08/13 11:57:12;;;;;;;18.93;17.43;;;27.00;97.90;;;;;;6153612;23;20452;-73
2021/08/13 11:59:41;;;;;;;326.40;130.73;;;27.00;97.60;;;;;;6154287;23;20431;-73
2021/08/13 12:02:09;;;;;;;299.07;122.90;;;27.00;97.70;;;;;;6155292;23;20512;-73
2021/08/13 12:04:39;;;;;;;333.53;129.70;;;27.00;97.80;;;;;;6154025;23;20454;-73
2021/08/13 12:07:09;;;;;;;306.97;138.10;;;27.00;97.80;;;;;;6154035;23;20532;-73
2021/08/13 12:09:43;;;;;;;329.63;138.33;;;27.10;97.80;;;;;;6153978;23;20486;-73
2021/08/13 12:12:28;;;;;;;383.93;147.73;;;27.10;97.80;;;;;;6154182;23;20491;-73
2021/08/13 12:14:57;;;;;;;301.47;140.40;;;27.20;97.80;;;;;;6154233;23;20440;-73
2021/08/13 12:17:26;;;;;;;314.63;128.20;;;27.20;97.70;;;;;;6154415;23;20930;-73
2021/08/13 12:19:57;;;;;;;20.50;18.77;;;27.30;97.60;;;;;;6153332;23;20471;-73
2021/08/13 12:22:33;;;;;;;246.43;124.63;;;27.30;97.40;;;;;;6153934;23;20208;-73
2021/08/13 12:25:06;;;;;;;267.07;135.97;;;27.40;97.40;;;;;;6155235;23;20729;-73
2021/08/13 12:27:37;;;;;;;308.10;138.97;;;27.40;97.40;;;;;;6154215;23;20467;-73
2021/08/13 12:30:15;;;;;;;296.20;126.60;;;27.40;97.40;;;;;;6154226;23;20441;-73
2021/08/13 12:32:47;;;;;;;357.70;138.43;;;27.30;97.30;;;;;;6154162;23;20772;-73
2021/08/13 12:35:16;;;;;;;342.73;131.03;;;27.30;97.40;;;;;;6154261;23;20439;-73
2021/08/13 12:37:45;;;;;;;315.80;135.27;;;27.30;97.40;;;;;;6154075;23;20487;-73